San Rafael, CA (94901)

3:58 PM PST on December 03, 2016 (GMT -0800)
Picnic Valley | | Change Station

Elev 13 ft 37.97 °N, 122.53 °W | Updated 3 minutes ago

Clear
Clear
59.8 °F
Feels Like 59.8 °F
N
0.0
Wind Variable Wind from NW
Gusts 11.6 mph

Today
High -- | Low -- °F
--% Chance of Precip.
Yesterday
High -- | Low -- °F
Precip. -- in
Pressure 30.21 in
Visibility 10.0 miles
Clouds Clear
Dew Point 44 °F
Humidity 56%
Rainfall 0.17 in
Snow Depth Not available.
7:09 AM 4:50 PM
Waxing Crescent, 18% visible
METAR KO69 032335Z AUTO 27005KT 10SM CLR 17/08 A3021 RMK AO1
Pressure 30.21 in
Visibility 10.0 miles
Clouds Clear
Dew Point 44 °F
Humidity 56%
Rainfall 0.17 in
Snow Depth Not available.
7:09 AM 4:50 PM
Waxing Crescent, 18% visible
METAR KO69 032335Z AUTO 27005KT 10SM CLR 17/08 A3021 RMK AO1

10-Day Weather Forecast

Almanac

Astronomy

Dec. 03, 2016 Rise Set
Actual Time
Civil Twilight
Nautical Twilight
Astronomical Twilight
Moon
Length of Visible Light
Length of Day
Tomorrow will be .
, % of the Moon is Illuminated

Today's Extremes

State Highs State Lows

Community

WunderPhotos

Upload Photos

1,955,536 photos uploaded!

WunderBlog® & News

Nearby

Air Quality

  Air Quality AQ Index Pollutant
Not available.

Snow Depth

Station Depth Elevation

Earthquake Activity

City Distance Mag. Time & Date
Minimum magnitude displayed is 2.5.

Coastal Water Temperatures

Place Temperature

Stations

Nearby Weather Stations

Station Location Temp. Windchill Dew Point Humidity Wind Precip. Elev Updated Type
                   

Watches & Warnings

There are currently no watches in effect.